sensor_id;sensor_type;location;lat;lon;timestamp;pressure;altitude;pressure_sealevel;temperature;humidity
44079;BME280;29744;49.078;12.878;2023-04-01T00:04:33;94999.16;;;15.03;35.39
44079;BME280;29744;49.078;12.878;2023-04-01T00:09:33;95002.19;;;15.02;35.42
44079;BME280;29744;49.078;12.878;2023-04-01T00:14:34;94997.94;;;15.01;35.32
44079;BME280;29744;49.078;12.878;2023-04-01T00:19:37;94999.06;;;15.00;35.67
44079;BME280;29744;49.078;12.878;2023-04-01T00:24:38;94989.41;;;14.99;35.85
44079;BME280;29744;49.078;12.878;2023-04-01T00:29:42;94990.56;;;14.98;35.37
44079;BME280;29744;49.078;12.878;2023-04-01T00:34:42;94996.31;;;14.96;35.86
44079;BME280;29744;49.078;12.878;2023-04-01T00:39:44;94995.91;;;14.94;35.31
44079;BME280;29744;49.078;12.878;2023-04-01T00:44:47;94995.91;;;14.94;35.82
44079;BME280;29744;49.078;12.878;2023-04-01T00:49:51;94991.63;;;14.93;35.60
44079;BME280;29744;49.078;12.878;2023-04-01T00:54:56;94985.81;;;14.91;35.71
44079;BME280;29744;49.078;12.878;2023-04-01T00:59:58;94996.19;;;14.89;35.54
44079;BME280;29744;49.078;12.878;2023-04-01T01:04:59;95000.81;;;14.89;35.85
44079;BME280;29744;49.078;12.878;2023-04-01T01:10:06;94991.16;;;14.88;35.60
44079;BME280;29744;49.078;12.878;2023-04-01T01:36:38;94979.03;;;14.78;35.53
44079;BME280;29744;49.078;12.878;2023-04-01T01:41:42;94986.78;;;14.79;35.50
44079;BME280;29744;49.078;12.878;2023-04-01T01:46:45;94977.91;;;14.79;35.62
44079;BME280;29744;49.078;12.878;2023-04-01T01:51:45;94986.38;;;14.77;36.07
44079;BME280;29744;49.078;12.878;2023-04-01T01:56:49;94982.09;;;14.76;35.92
44079;BME280;29744;49.078;12.878;2023-04-01T02:01:55;94991.34;;;14.75;35.64
44079;BME280;29744;49.078;12.878;2023-04-01T02:07:00;94984.81;;;14.76;35.81
44079;BME280;29744;49.078;12.878;2023-04-01T02:12:12;94995.19;;;14.74;35.73
44079;BME280;29744;49.078;12.878;2023-04-01T02:17:18;94987.06;;;14.74;36.03
44079;BME280;29744;49.078;12.878;2023-04-01T02:22:24;94986.66;;;14.72;35.88
44079;BME280;29744;49.078;12.878;2023-04-01T02:27:25;94989.34;;;14.72;35.88
44079;BME280;29744;49.078;12.878;2023-04-01T02:32:28;94992.41;;;14.71;36.17
44079;BME280;29744;49.078;12.878;2023-04-01T02:37:29;94999.72;;;14.70;35.58
44079;BME280;29744;49.078;12.878;2023-04-01T02:42:30;95000.88;;;14.69;36.19
44079;BME280;29744;49.078;12.878;2023-04-01T02:47:30;95006.63;;;14.68;35.82
44079;BME280;29744;49.078;12.878;2023-04-01T02:52:30;95009.31;;;14.68;36.03
44079;BME280;29744;49.078;12.878;2023-04-01T02:57:31;95019.34;;;14.67;35.56
44079;BME280;29744;49.078;12.878;2023-04-01T03:02:31;95010.47;;;14.67;36.09
44079;BME280;29744;49.078;12.878;2023-04-01T03:07:31;94999.66;;;14.67;35.67
44079;BME280;29744;49.078;12.878;2023-04-01T03:12:32;95007.34;;;14.65;36.00
44079;BME280;29744;49.078;12.878;2023-04-01T03:17:32;95014.66;;;14.64;35.94
44079;BME280;29744;49.078;12.878;2023-04-01T03:22:32;95011.19;;;14.64;36.08
44079;BME280;29744;49.078;12.878;2023-04-01T03:32:34;95010.75;;;14.62;35.86
44079;BME280;29744;49.078;12.878;2023-04-01T03:37:34;95022.69;;;14.61;35.88
44079;BME280;29744;49.078;12.878;2023-04-01T03:42:35;95028.09;;;14.61;36.09
44079;BME280;29744;49.078;12.878;2023-04-01T03:47:35;95029.28;;;14.63;35.83
44079;BME280;29744;49.078;12.878;2023-04-01T03:52:36;95028.56;;;14.66;36.06
44079;BME280;29744;49.078;12.878;2023-04-01T03:57:36;95041.00;;;14.71;35.61
44079;BME280;29744;49.078;12.878;2023-04-01T04:02:36;95034.94;;;14.77;36.14
44079;BME280;29744;49.078;12.878;2023-04-01T04:07:37;95035.84;;;14.85;36.01
44079;BME280;29744;49.078;12.878;2023-04-01T04:12:38;95050.66;;;14.95;35.75
44079;BME280;29744;49.078;12.878;2023-04-01T04:17:38;95045.06;;;15.03;35.93
44079;BME280;29744;49.078;12.878;2023-04-01T04:22:38;95045.22;;;15.14;35.70
44079;BME280;29744;49.078;12.878;2023-04-01T04:27:39;95054.28;;;15.25;35.79
44079;BME280;29744;49.078;12.878;2023-04-01T04:32:39;95054.47;;;15.36;35.63
44079;BME280;29744;49.078;12.878;2023-04-01T04:37:40;95061.19;;;15.45;35.67
44079;BME280;29744;49.078;12.878;2023-04-01T04:42:41;95064.41;;;15.55;35.61
44079;BME280;29744;49.078;12.878;2023-04-01T04:47:41;95069.19;;;15.65;35.20
44079;BME280;29744;49.078;12.878;2023-04-01T04:52:41;95049.22;;;15.73;35.08
44079;BME280;29744;49.078;12.878;2023-04-01T04:57:41;95072.53;;;15.81;34.86
44079;BME280;29744;49.078;12.878;2023-04-01T05:02:42;95055.22;;;15.86;34.88
44079;BME280;29744;49.078;12.878;2023-04-01T05:07:42;95056.06;;;15.90;35.13
44079;BME280;29744;49.078;12.878;2023-04-01T05:12:42;95063.84;;;15.95;35.05
44079;BME280;29744;49.078;12.878;2023-04-01T05:17:43;95067.75;;;15.97;35.13
44079;BME280;29744;49.078;12.878;2023-04-01T05:22:43;95075.50;;;15.99;35.04
44079;BME280;29744;49.078;12.878;2023-04-01T05:27:43;95077.84;;;16.00;34.63
44079;BME280;29744;49.078;12.878;2023-04-01T05:32:44;95088.28;;;16.02;35.18
44079;BME280;29744;49.078;12.878;2023-04-01T05:37:44;95094.47;;;16.02;34.84
44079;BME280;29744;49.078;12.878;2023-04-01T05:42:45;95096.41;;;16.02;34.55
44079;BME280;29744;49.078;12.878;2023-04-01T05:47:45;95101.03;;;16.01;34.50
44079;BME280;29744;49.078;12.878;2023-04-01T05:52:45;95100.25;;;16.01;34.81
44079;BME280;29744;49.078;12.878;2023-04-01T05:57:46;95111.44;;;15.99;34.57
44079;BME280;29744;49.078;12.878;2023-04-01T06:02:48;95108.72;;;15.99;34.66
44079;BME280;29744;49.078;12.878;2023-04-01T06:07:51;95104.47;;;15.98;34.72
44079;BME280;29744;49.078;12.878;2023-04-01T06:13:04;95117.56;;;15.96;35.06
44079;BME280;29744;49.078;12.878;2023-04-01T06:18:31;95114.81;;;15.93;35.02
44079;BME280;29744;49.078;12.878;2023-04-01T06:29:23;95116.69;;;15.89;34.87
44079;BME280;29744;49.078;12.878;2023-04-01T06:50:53;95117.00;;;15.84;34.64
44079;BME280;29744;49.078;12.878;2023-04-01T07:01:07;95104.25;;;15.84;34.84
44079;BME280;29744;49.078;12.878;2023-04-01T07:06:26;95101.91;;;15.83;34.91
44079;BME280;29744;49.078;12.878;2023-04-01T07:11:34;95110.03;;;15.83;35.00
44079;BME280;29744;49.078;12.878;2023-04-01T07:16:56;95109.94;;;15.79;34.92
44079;BME280;29744;49.078;12.878;2023-04-01T07:22:03;95109.59;;;15.81;34.87
44079;BME280;29744;49.078;12.878;2023-04-01T07:27:09;95112.66;;;15.79;34.95
44079;BME280;29744;49.078;12.878;2023-04-01T07:32:18;95108.06;;;15.80;34.74
44079;BME280;29744;49.078;12.878;2023-04-01T07:42:49;95130.38;;;15.76;34.85
44079;BME280;29744;49.078;12.878;2023-04-01T07:53:36;95125.75;;;15.77;34.70
44079;BME280;29744;49.078;12.878;2023-04-01T08:25:28;95123.13;;;15.81;34.79
44079;BME280;29744;49.078;12.878;2023-04-01T08:30:47;95122.69;;;15.78;34.99
44079;BME280;29744;49.078;12.878;2023-04-01T08:35:54;95126.97;;;15.80;34.87
44079;BME280;29744;49.078;12.878;2023-04-01T08:40:59;95123.13;;;15.81;35.11
44079;BME280;29744;49.078;12.878;2023-04-01T08:46:25;95124.59;;;15.78;35.13
44079;BME280;29744;49.078;12.878;2023-04-01T09:02:21;95128.81;;;15.75;35.23
44079;BME280;29744;49.078;12.878;2023-04-01T09:34:11;95118.63;;;15.65;35.35
44079;BME280;29744;49.078;12.878;2023-04-01T09:39:35;95117.06;;;15.64;35.21
44079;BME280;29744;49.078;12.878;2023-04-01T09:44:45;95117.06;;;15.64;35.11
44079;BME280;29744;49.078;12.878;2023-04-01T09:55:20;95110.03;;;15.60;35.59
44079;BME280;29744;49.078;12.878;2023-04-01T10:22:48;95107.16;;;15.49;35.18
44079;BME280;29744;49.078;12.878;2023-04-01T10:49:33;95097.06;;;15.46;35.37
44079;BME280;29744;49.078;12.878;2023-04-01T10:54:47;95087.06;;;15.46;35.40
44079;BME280;29744;49.078;12.878;2023-04-01T11:16:47;95072.34;;;15.44;35.04
44079;BME280;29744;49.078;12.878;2023-04-01T11:38:14;95078.09;;;15.42;35.15
44079;BME280;29744;49.078;12.878;2023-04-01T11:43:51;95072.28;;;15.40;35.37
44079;BME280;29744;49.078;12.878;2023-04-01T12:04:50;95079.59;;;15.40;35.56
44079;BME280;29744;49.078;12.878;2023-04-01T12:31:47;95078.00;;;15.35;35.35
44079;BME280;29744;49.078;12.878;2023-04-01T12:37:08;95083.03;;;15.37;35.16
44079;BME280;29744;49.078;12.878;2023-04-01T13:13:46;95111.50;;;15.31;35.36
44079;BME280;29744;49.078;12.878;2023-04-01T13:24:03;95114.59;;;15.33;35.28
44079;BME280;29744;49.078;12.878;2023-04-01T13:29:15;95118.50;;;15.35;35.34
44079;BME280;29744;49.078;12.878;2023-04-01T13:34:27;95113.16;;;15.39;35.26
44079;BME280;29744;49.078;12.878;2023-04-01T13:44:49;95121.38;;;15.46;35.66
44079;BME280;29744;49.078;12.878;2023-04-01T13:55:39;95125.78;;;15.54;35.41
44079;BME280;29744;49.078;12.878;2023-04-01T14:27:45;95128.75;;;15.72;35.50
44079;BME280;29744;49.078;12.878;2023-04-01T14:32:58;95139.19;;;15.73;35.15
44079;BME280;29744;49.078;12.878;2023-04-01T14:38:15;95136.50;;;15.73;35.41
44079;BME280;29744;49.078;12.878;2023-04-01T14:49:00;95147.69;;;15.72;35.44
44079;BME280;29744;49.078;12.878;2023-04-01T14:54:13;95142.28;;;15.72;35.45
44079;BME280;29744;49.078;12.878;2023-04-01T15:20:34;95153.75;;;15.65;35.54
44079;BME280;29744;49.078;12.878;2023-04-01T15:36:35;95160.66;;;15.63;35.21
44079;BME280;29744;49.078;12.878;2023-04-01T15:41:56;95157.53;;;15.61;35.40
44079;BME280;29744;49.078;12.878;2023-04-01T15:46:58;95162.94;;;15.61;35.62
44079;BME280;29744;49.078;12.878;2023-04-01T15:57:37;95172.13;;;15.56;35.25
44079;BME280;29744;49.078;12.878;2023-04-01T16:03:02;95171.34;;;15.56;35.65
44079;BME280;29744;49.078;12.878;2023-04-01T16:08:35;95174.75;;;15.53;35.62
44079;BME280;29744;49.078;12.878;2023-04-01T16:19:31;95182.03;;;15.49;35.29
44079;BME280;29744;49.078;12.878;2023-04-01T16:24:50;95179.25;;;15.45;35.20
44079;BME280;29744;49.078;12.878;2023-04-01T16:35:29;95178.06;;;15.42;35.70
44079;BME280;29744;49.078;12.878;2023-04-01T16:40:41;95174.94;;;15.40;35.72
44079;BME280;29744;49.078;12.878;2023-04-01T16:45:46;95173.03;;;15.41;35.52
44079;BME280;29744;49.078;12.878;2023-04-01T16:51:03;95184.19;;;15.39;35.51
44079;BME280;29744;49.078;12.878;2023-04-01T17:01:27;95196.56;;;15.40;35.56
44079;BME280;29744;49.078;12.878;2023-04-01T17:27:55;95216.72;;;15.46;35.75
44079;BME280;29744;49.078;12.878;2023-04-01T17:33:14;95214.81;;;15.47;35.69
44079;BME280;29744;49.078;12.878;2023-04-01T17:59:37;95237.56;;;15.46;35.33
44079;BME280;29744;49.078;12.878;2023-04-01T18:15:40;95257.56;;;15.41;35.64
44079;BME280;29744;49.078;12.878;2023-04-01T18:26:23;95267.22;;;15.42;35.54
44079;BME280;29744;49.078;12.878;2023-04-01T18:31:38;95272.97;;;15.41;35.64
44079;BME280;29744;49.078;12.878;2023-04-01T18:41:56;95286.84;;;15.39;35.63
44079;BME280;29744;49.078;12.878;2023-04-01T18:47:25;95283.72;;;15.37;35.43
44079;BME280;29744;49.078;12.878;2023-04-01T18:52:36;95296.78;;;15.35;35.82
44079;BME280;29744;49.078;12.878;2023-04-01T18:57:47;95311.09;;;15.36;35.61
44079;BME280;29744;49.078;12.878;2023-04-01T19:03:02;95311.44;;;15.34;35.53
44079;BME280;29744;49.078;12.878;2023-04-01T19:08:30;95307.88;;;15.30;35.68
44079;BME280;29744;49.078;12.878;2023-04-01T19:13:37;95312.94;;;15.32;35.61
44079;BME280;29744;49.078;12.878;2023-04-01T20:02:44;95329.13;;;15.12;35.95
44079;BME280;29744;49.078;12.878;2023-04-01T20:08:01;95342.28;;;15.14;35.57
44079;BME280;29744;49.078;12.878;2023-04-01T20:18:21;95341.84;;;15.12;35.64
44079;BME280;29744;49.078;12.878;2023-04-01T20:23:39;95347.59;;;15.10;35.81
44079;BME280;29744;49.078;12.878;2023-04-01T20:28:45;95345.69;;;15.11;36.04
44079;BME280;29744;49.078;12.878;2023-04-01T20:33:53;95344.91;;;15.10;35.88
44079;BME280;29744;49.078;12.878;2023-04-01T20:49:54;95362.16;;;15.06;36.00
44079;BME280;29744;49.078;12.878;2023-04-01T20:55:17;95367.91;;;15.04;35.82
44079;BME280;29744;49.078;12.878;2023-04-01T21:00:31;95369.03;;;15.03;35.63
44079;BME280;29744;49.078;12.878;2023-04-01T21:05:51;95372.88;;;15.02;36.16
44079;BME280;29744;49.078;12.878;2023-04-01T21:11:40;95369.38;;;15.02;35.79
44079;BME280;29744;49.078;12.878;2023-04-01T21:21:54;95374.69;;;14.98;35.84
44079;BME280;29744;49.078;12.878;2023-04-01T21:32:52;95375.75;;;14.94;36.11
44079;BME280;29744;49.078;12.878;2023-04-01T21:39:01;95381.50;;;14.92;36.32
44079;BME280;29744;49.078;12.878;2023-04-01T22:10:20;95410.66;;;14.87;36.48
44079;BME280;29744;49.078;12.878;2023-04-01T22:15:43;95407.97;;;14.87;36.16
44079;BME280;29744;49.078;12.878;2023-04-01T22:21:18;95404.06;;;14.84;36.34
44079;BME280;29744;49.078;12.878;2023-04-01T22:26:43;95406.41;;;14.86;36.06
44079;BME280;29744;49.078;12.878;2023-04-01T22:32:00;95410.59;;;14.83;36.49
44079;BME280;29744;49.078;12.878;2023-04-01T22:47:40;95423.66;;;14.81;36.11
44079;BME280;29744;49.078;12.878;2023-04-01T22:52:50;95427.47;;;14.80;36.54
44079;BME280;29744;49.078;12.878;2023-04-01T22:58:03;95434.00;;;14.79;36.17
44079;BME280;29744;49.078;12.878;2023-04-01T23:13:32;95440.53;;;14.78;35.94
44079;BME280;29744;49.078;12.878;2023-04-01T23:18:41;95447.84;;;14.77;36.13
44079;BME280;29744;49.078;12.878;2023-04-01T23:29:20;95447.41;;;14.75;36.41
44079;BME280;29744;49.078;12.878;2023-04-01T23:34:26;95452.81;;;14.75;36.54
44079;BME280;29744;49.078;12.878;2023-04-01T23:39:41;95454.28;;;14.73;36.23
44079;BME280;29744;49.078;12.878;2023-04-01T23:44:44;95457.00;;;14.73;36.39
44079;BME280;29744;49.078;12.878;2023-04-01T23:49:48;95457.00;;;14.73;36.07
44079;BME280;29744;49.078;12.878;2023-04-01T23:54:57;95465.44;;;14.71;36.11
